Airfield :
LOGIN :

Register | Disclaimer

   EN    FR    IT 

 










Legend :    VFR   Marginal VFR   IFR   Intensive IFR   Very Intensive IFR
Visi :
Ceiling :
>= 8 km
>= 3000ft
5 to 8 km
1000 to 3000 ft
1500m to 5 km
500 to 1000 ft
800 to 1500m
200 to 500 ft
< 800m
< 200 ft
Symbols :   Thunderstorms  Fog  Heavy snow  Heavy precipitations  Wind > 20 kt
SIGMETs :     Misc.  Thunderstorms  Icing  Turbulence  Mountain Waves  Volcanic Ashes






- Airport Elevation : 2031 ft


LEGT - Madrid Getafe

CURRENT METAR :
  • 130830Z 10005KT CAVOK 25/15 Q1013

EXPIRED METARs :
  • 130800Z 06005KT CAVOK 24/14 Q1013
  • 130730Z 05006KT CAVOK 22/13 Q1013
  • 130700Z 05007KT 020V080 CAVOK 21/12 Q1013
  • 130630Z 04007KT CAVOK 21/11 Q1013
  • 130600Z 04007KT CAVOK 20/11 Q1013
  • 130530Z AUTO 05006KT CAVOK 19/11 Q1013
  • 130500Z AUTO 04007KT CAVOK 19/11 Q1013
  • 130430Z AUTO 05006KT CAVOK 19/11 Q1013
  • 130400Z AUTO 04006KT CAVOK 19/11 Q1013

TAF AMD TAF LEGT
Valid from the 13 at 08:00 until the 14 at 06:00 UTC


130846Z 1308/1406 VRB04KT CAVOK TX35/1316Z TN19/1405Z
BECMG 1310/1312 23010KT
PROB30
TEMPO 1313/1319 23015G25KT



MET'MAP, your aeronautical weather chart ! - Copyright ORBIFLY December 2007 - Disclaimer

ORBIFLY MET'MAP TEAM :

Programming & Development : Alexandra Zaïnal
Original concept : Baudouin d'Aumeries
Technical & hardware support : Manuel Goepfert
Assistance : Marc-Olivier Méhu




SOURCES & CREDITS :

   NOAA